createdAt,value
2018-06-13T07:02:30.980Z,12.90
2018-06-13T07:04:59.154Z,12.90
2018-06-13T07:07:27.334Z,13.00
2018-06-13T07:09:55.554Z,13.10
2018-06-13T07:12:23.736Z,13.10
2018-06-13T07:14:51.914Z,13.20
2018-06-13T07:17:20.088Z,13.20
2018-06-13T07:19:48.260Z,13.10
2018-06-13T07:22:16.449Z,13.10
2018-06-13T07:24:44.677Z,13.00
2018-06-13T07:27:12.869Z,12.90
2018-06-13T07:29:41.056Z,13.00
2018-06-13T07:32:09.240Z,12.90
2018-06-13T07:34:37.425Z,12.80
2018-06-13T07:37:05.600Z,12.80
2018-06-13T07:39:33.780Z,12.80
2018-06-13T07:42:01.948Z,12.70
2018-06-13T07:44:30.126Z,12.70
2018-06-13T07:46:58.305Z,12.60
2018-06-13T07:49:26.497Z,12.60
2018-06-13T07:51:54.680Z,12.50
2018-06-13T07:54:22.866Z,12.50
2018-06-13T07:56:51.040Z,12.40
2018-06-13T07:59:19.240Z,12.40
2018-06-13T08:01:47.424Z,12.40
2018-06-13T08:04:15.609Z,12.40
2018-06-13T08:06:43.788Z,12.40
2018-06-13T08:09:11.976Z,12.40
2018-06-13T08:11:40.156Z,12.50
2018-06-13T08:14:08.331Z,12.50
2018-06-13T08:16:36.516Z,12.50
2018-06-13T08:19:04.800Z,12.50
2018-06-13T08:21:32.982Z,12.50
2018-06-13T08:24:01.160Z,12.50
2018-06-13T08:26:29.341Z,12.50
2018-06-13T08:28:57.515Z,12.50
2018-06-13T08:31:25.688Z,12.60
2018-06-13T08:33:54.193Z,12.60
2018-06-13T08:36:22.377Z,12.60
2018-06-13T08:38:50.572Z,12.60
2018-06-13T08:41:18.841Z,12.60
2018-06-13T08:43:47.020Z,12.60
2018-06-13T08:46:15.196Z,12.70
2018-06-13T08:48:43.385Z,12.60
2018-06-13T08:51:11.565Z,12.60
2018-06-13T08:53:39.744Z,12.70
2018-06-13T08:56:07.933Z,12.70
2018-06-13T08:58:36.121Z,12.70
2018-06-13T09:01:04.340Z,12.70
2018-06-13T09:03:32.517Z,12.70
2018-06-13T09:06:00.736Z,12.70
2018-06-13T09:08:28.919Z,12.70
2018-06-13T09:10:57.092Z,12.70
2018-06-13T09:13:25.267Z,12.70
2018-06-13T09:15:53.449Z,12.70
2018-06-13T09:18:21.631Z,12.70
2018-06-13T09:20:49.816Z,12.70
2018-06-13T09:23:17.988Z,12.70
2018-06-13T09:25:46.180Z,12.60
2018-06-13T09:28:14.356Z,12.60
2018-06-13T09:30:42.538Z,12.60
2018-06-13T09:33:10.724Z,12.70
2018-06-13T09:35:38.893Z,12.70
2018-06-13T09:38:07.092Z,12.60
2018-06-13T09:40:35.272Z,12.60
2018-06-13T09:43:03.460Z,12.70
2018-06-13T09:45:31.648Z,12.70
2018-06-13T09:47:59.830Z,12.70
2018-06-13T09:52:55.988Z,12.70
2018-06-13T09:55:24.172Z,12.70
2018-06-13T09:57:52.356Z,12.70
2018-06-13T10:00:26.021Z,12.60
2018-06-13T10:02:54.192Z,12.60
2018-06-13T10:05:22.372Z,12.60
2018-06-13T10:07:50.548Z,12.60
2018-06-13T10:10:18.724Z,12.50
2018-06-13T10:12:46.900Z,12.50
2018-06-13T10:17:43.083Z,12.60
2018-06-13T10:20:11.269Z,12.60
2018-06-13T10:22:39.460Z,12.60
2018-06-13T10:25:07.632Z,12.60
2018-06-13T10:27:40.160Z,12.60
2018-06-13T10:30:08.358Z,12.60
2018-06-13T10:32:36.573Z,12.60
2018-06-13T10:35:04.768Z,12.70
2018-06-13T10:37:32.956Z,12.70
2018-06-13T10:40:01.148Z,12.80
2018-06-13T10:42:30.361Z,12.80
2018-06-13T10:44:58.541Z,12.80
2018-06-13T10:47:26.723Z,12.80
2018-06-13T10:49:54.910Z,12.80
2018-06-13T10:52:23.088Z,12.80
2018-06-13T10:54:51.276Z,12.70
2018-06-13T10:57:19.468Z,12.80
2018-06-13T10:59:47.648Z,12.80
2018-06-13T11:02:15.836Z,12.80
2018-06-13T11:09:39.912Z,12.80
2018-06-13T11:12:08.099Z,12.90
2018-06-13T11:14:36.280Z,13.00
2018-06-13T11:17:04.465Z,13.00
2018-06-13T11:19:32.653Z,13.00
2018-06-13T11:22:00.836Z,13.00
2018-06-13T11:24:29.017Z,13.00
2018-06-13T11:26:57.203Z,13.10
2018-06-13T11:29:25.384Z,13.10
2018-06-13T11:31:53.564Z,13.20
2018-06-13T11:34:21.754Z,13.20
2018-06-13T11:36:50.490Z,13.20
2018-06-13T11:39:18.675Z,13.20
2018-06-13T11:41:46.868Z,13.30
2018-06-13T11:44:15.048Z,13.40
2018-06-13T11:46:44.273Z,13.40
2018-06-13T11:49:12.457Z,13.40
2018-06-13T11:51:40.642Z,13.40
2018-06-13T11:54:08.825Z,13.40
2018-06-13T11:56:37.022Z,13.40
2018-06-13T11:59:05.204Z,13.40
2018-06-13T12:01:33.387Z,13.40
2018-06-13T12:04:01.568Z,13.40
2018-06-13T12:06:29.754Z,13.40
2018-06-13T12:08:57.940Z,13.40
2018-06-13T12:11:26.120Z,13.30
2018-06-13T12:13:54.296Z,13.40
2018-06-13T12:16:22.483Z,13.40
2018-06-13T12:18:50.663Z,13.40
2018-06-13T12:21:18.841Z,13.40
2018-06-13T12:23:47.011Z,13.40
2018-06-13T12:26:15.187Z,13.50
2018-06-13T12:28:43.383Z,13.50
2018-06-13T12:33:39.676Z,13.60
2018-06-13T12:36:07.864Z,13.60
2018-06-13T12:38:36.040Z,13.70
2018-06-13T12:41:04.235Z,13.60
2018-06-13T12:43:32.417Z,13.70
2018-06-13T12:46:00.589Z,13.80
2018-06-13T12:48:28.768Z,13.80
2018-06-13T12:50:56.976Z,13.80
2018-06-13T12:53:25.128Z,13.80
2018-06-13T12:55:53.335Z,13.70
2018-06-13T12:58:24.869Z,13.70
2018-06-13T13:03:20.996Z,13.70
2018-06-13T13:05:49.181Z,13.70
2018-06-13T13:08:17.369Z,13.70
2018-06-13T13:10:45.549Z,13.70
2018-06-13T13:13:13.741Z,13.70
2018-06-13T13:15:41.924Z,13.70
2018-06-13T13:18:10.103Z,13.80
2018-06-13T13:20:38.291Z,13.80
2018-06-13T13:23:06.667Z,13.70
2018-06-13T13:25:34.844Z,13.80
2018-06-13T13:28:03.084Z,13.80
2018-06-13T13:30:31.265Z,13.90
2018-06-13T13:32:59.440Z,13.90
2018-06-13T13:35:27.622Z,13.90
2018-06-13T13:37:55.808Z,13.90
2018-06-13T13:40:23.998Z,13.90
2018-06-13T13:42:52.181Z,13.90
2018-06-13T13:45:20.384Z,13.90
2018-06-13T13:47:48.540Z,13.90
2018-06-13T13:50:16.772Z,13.80
2018-06-13T13:52:44.961Z,13.70
2018-06-13T13:55:13.145Z,13.70
2018-06-13T13:57:41.334Z,13.70
2018-06-13T14:00:09.520Z,13.60
2018-06-13T14:02:37.701Z,13.60
2018-06-13T14:05:06.036Z,13.50
2018-06-13T14:07:34.213Z,13.60
2018-06-13T14:10:02.412Z,13.50
2018-06-13T14:12:30.633Z,13.60
2018-06-13T14:14:58.807Z,13.60
2018-06-13T14:17:27.100Z,13.80
2018-06-13T14:19:55.276Z,13.90
2018-06-13T14:22:23.617Z,13.90
2018-06-13T14:24:51.676Z,13.80
2018-06-13T14:27:19.874Z,13.80
2018-06-13T14:29:48.082Z,13.80
2018-06-13T14:32:16.440Z,13.80
2018-06-13T14:34:44.622Z,13.80
2018-06-13T14:37:12.856Z,13.80
2018-06-13T14:39:41.087Z,13.80
2018-06-13T14:42:09.262Z,13.80
2018-06-13T14:44:37.469Z,13.80
2018-06-13T14:47:05.661Z,13.80
2018-06-13T14:49:33.840Z,13.80
2018-06-13T14:52:02.080Z,13.90
2018-06-13T14:54:30.256Z,13.90
2018-06-13T14:56:58.442Z,13.90
2018-06-13T14:59:27.645Z,13.90
2018-06-13T15:01:55.889Z,13.90
2018-06-13T15:04:26.491Z,13.90
2018-06-13T15:06:54.660Z,13.80
2018-06-13T15:09:22.857Z,13.70
2018-06-13T15:11:51.038Z,13.70
2018-06-13T15:14:19.313Z,13.60
2018-06-13T15:16:47.496Z,13.50
2018-06-13T15:19:15.674Z,13.50
2018-06-13T15:21:43.845Z,13.40
2018-06-13T15:24:12.032Z,13.40
2018-06-13T15:26:40.272Z,13.40
2018-06-13T15:29:08.470Z,13.50
2018-06-13T15:31:36.649Z,13.70
2018-06-13T15:34:04.867Z,13.80
2018-06-13T15:36:33.055Z,13.90
2018-06-13T15:39:01.242Z,13.90
2018-06-13T15:43:57.409Z,13.60
2018-06-13T15:46:25.584Z,13.50
2018-06-13T15:48:53.792Z,13.40
2018-06-13T15:51:21.981Z,13.30
2018-06-13T15:53:50.173Z,13.20
2018-06-13T15:56:18.377Z,13.20
2018-06-13T15:58:46.568Z,13.10
2018-06-13T16:01:14.778Z,13.10
2018-06-13T16:03:43.017Z,13.10
2018-06-13T16:06:11.283Z,13.10
2018-06-13T16:08:39.481Z,13.10
2018-06-13T16:11:07.674Z,13.10
2018-06-13T16:13:35.901Z,13.10
2018-06-13T16:16:04.118Z,13.00
2018-06-13T16:18:32.333Z,13.00
2018-06-13T16:21:00.541Z,13.00
2018-06-13T16:23:28.864Z,13.00
2018-06-13T16:25:57.065Z,13.00
2018-06-13T16:28:25.240Z,13.00
2018-06-13T16:30:53.430Z,13.00
2018-06-13T16:33:21.616Z,13.00
2018-06-13T16:35:49.825Z,13.00
2018-06-13T16:38:18.013Z,13.00
2018-06-13T16:40:46.253Z,13.10
2018-06-13T16:43:14.430Z,13.10
2018-06-13T16:45:42.607Z,13.10
2018-06-13T16:48:10.817Z,13.10
2018-06-13T16:50:50.648Z,13.10
2018-06-13T16:53:31.265Z,13.10
2018-06-13T16:55:59.476Z,13.10
2018-06-13T16:58:27.672Z,13.00
2018-06-13T17:00:55.895Z,13.00
2018-06-13T17:03:24.748Z,13.00
2018-06-13T17:05:52.937Z,13.00
2018-06-13T17:08:21.125Z,13.00
2018-06-13T17:10:49.304Z,13.00
2018-06-13T17:13:17.492Z,12.90
2018-06-13T17:15:45.677Z,12.90
2018-06-13T17:18:13.863Z,13.00
2018-06-13T17:20:42.056Z,13.10
2018-06-13T17:23:10.250Z,13.20
2018-06-13T17:25:38.439Z,13.20
2018-06-13T17:28:06.641Z,13.10
2018-06-13T17:33:02.769Z,13.30
2018-06-13T17:35:30.940Z,13.30
2018-06-13T17:37:59.115Z,13.30
2018-06-13T17:40:27.541Z,13.40
2018-06-13T17:42:55.716Z,13.40
2018-06-13T17:45:24.072Z,13.30
2018-06-13T17:47:52.272Z,13.30
2018-06-13T17:50:20.467Z,13.30
2018-06-13T17:52:48.648Z,13.40
2018-06-13T17:55:16.893Z,13.50
2018-06-13T17:57:45.216Z,13.50
2018-06-13T18:00:13.365Z,13.40
2018-06-13T18:02:41.623Z,13.30
2018-06-13T18:07:37.762Z,13.40
2018-06-13T18:10:05.944Z,13.50
2018-06-13T18:12:34.120Z,13.50
2018-06-13T18:15:02.308Z,13.40
2018-06-13T18:17:30.479Z,13.30
2018-06-13T18:19:58.653Z,13.30
2018-06-13T18:22:26.824Z,13.20
2018-06-13T18:24:54.996Z,13.20
2018-06-13T18:27:23.191Z,13.10
2018-06-13T18:29:51.369Z,13.00
2018-06-13T18:32:19.558Z,13.00
2018-06-13T18:34:47.757Z,13.00
2018-06-13T18:37:15.945Z,13.10
2018-06-13T18:39:44.123Z,13.00
2018-06-13T18:42:12.300Z,12.90
2018-06-13T18:44:40.490Z,12.90
2018-06-13T18:47:08.749Z,12.80
2018-06-13T18:49:37.995Z,12.80
2018-06-13T18:52:06.390Z,12.80
2018-06-13T18:54:34.571Z,12.80
2018-06-13T18:57:02.753Z,12.80
2018-06-13T18:59:30.941Z,12.90
2018-06-13T19:01:59.133Z,12.90
2018-06-13T19:04:27.321Z,13.00
2018-06-13T19:06:55.504Z,13.00
2018-06-13T19:09:23.696Z,13.00
2018-06-13T19:11:51.884Z,13.00
2018-06-13T19:14:20.068Z,13.00
2018-06-13T19:16:49.156Z,12.90
2018-06-13T19:19:17.337Z,12.90
2018-06-13T19:21:45.529Z,12.90
2018-06-13T19:24:13.753Z,12.90
2018-06-13T19:26:41.957Z,12.90
2018-06-13T19:29:10.141Z,12.90
2018-06-13T19:31:38.334Z,12.90
2018-06-13T19:34:06.508Z,12.90
2018-06-13T19:36:34.713Z,12.80
2018-06-13T19:39:02.940Z,12.80
2018-06-13T19:41:31.136Z,12.80
2018-06-13T19:43:59.350Z,12.80
2018-06-13T19:46:27.645Z,12.80
2018-06-13T19:48:55.985Z,12.80
2018-06-13T19:51:24.197Z,12.70
2018-06-13T19:53:57.904Z,12.80
2018-06-13T19:56:27.889Z,12.80
2018-06-13T19:58:56.094Z,12.80
2018-06-13T20:01:24.944Z,12.80
2018-06-13T20:03:58.600Z,12.70
2018-06-13T20:06:26.705Z,12.70
2018-06-13T20:08:54.908Z,12.70
2018-06-13T20:11:23.186Z,12.70
2018-06-13T20:13:56.741Z,12.70
2018-06-13T20:16:41.965Z,12.70
2018-06-13T20:19:15.678Z,12.70
2018-06-13T20:21:44.396Z,12.70
2018-06-13T20:24:12.591Z,12.70
2018-06-13T20:26:46.290Z,12.60
2018-06-13T20:29:19.976Z,12.60
2018-06-13T20:31:48.504Z,12.60
2018-06-13T20:34:16.721Z,12.60
2018-06-13T20:36:44.986Z,12.50
2018-06-13T20:39:13.268Z,12.60
2018-06-13T20:41:41.725Z,12.60
2018-06-13T20:44:10.815Z,12.50
2018-06-13T20:46:39.213Z,12.50
2018-06-13T20:49:07.408Z,12.50
2018-06-13T20:51:35.612Z,12.40
2018-06-13T20:54:03.925Z,12.40
2018-06-13T20:56:32.137Z,12.40
2018-06-13T20:59:00.328Z,12.40
